createdAt,value
2022-12-07T00:02:19.138Z,84.36
2022-12-07T00:07:27.709Z,83.23
2022-12-07T00:12:31.764Z,82.27
2022-12-07T00:17:35.246Z,82.59
2022-12-07T00:22:38.779Z,81.85
2022-12-07T00:27:42.710Z,81.32
2022-12-07T00:32:45.770Z,81.33
2022-12-07T00:37:48.889Z,81.96
2022-12-07T00:42:52.347Z,82.11
2022-12-07T00:47:56.523Z,82.51
2022-12-07T00:53:00.155Z,83.41
2022-12-07T00:58:03.677Z,84.80
2022-12-07T01:03:09.232Z,84.61
2022-12-07T01:08:12.524Z,84.23
2022-12-07T01:13:16.992Z,83.30
2022-12-07T01:18:20.222Z,83.15
2022-12-07T01:23:23.882Z,83.46
2022-12-07T01:28:28.887Z,83.09
2022-12-07T01:33:35.547Z,82.34
2022-12-07T01:38:39.279Z,81.95
2022-12-07T01:44:27.104Z,82.57
2022-12-07T01:49:48.492Z,83.11
2022-12-07T01:54:54.743Z,83.84
2022-12-07T01:59:59.203Z,84.11
2022-12-07T02:05:18.067Z,83.85
2022-12-07T02:10:25.154Z,82.73
2022-12-07T02:15:51.247Z,81.22
2022-12-07T02:20:58.822Z,82.23
2022-12-07T02:26:13.902Z,81.35
2022-12-07T02:31:21.632Z,81.37
2022-12-07T02:36:28.606Z,80.76
2022-12-07T02:41:40.722Z,80.69
2022-12-07T02:46:51.336Z,80.42
2022-12-07T02:51:54.938Z,80.19
2022-12-07T02:57:14.377Z,80.64
2022-12-07T03:02:54.898Z,80.59
2022-12-07T03:08:22.456Z,81.32
2022-12-07T03:13:34.401Z,79.54
2022-12-07T03:18:44.889Z,81.10
2022-12-07T03:23:52.642Z,82.25
2022-12-07T03:28:59.550Z,82.15
2022-12-07T03:34:14.856Z,82.72
2022-12-07T03:39:29.590Z,83.57
2022-12-07T03:45:23.825Z,81.37
2022-12-07T03:50:41.142Z,80.23
2022-12-07T03:55:47.462Z,77.24
2022-12-07T04:00:52.050Z,75.81
2022-12-07T04:05:55.725Z,73.70
2022-12-07T04:10:59.050Z,75.53
2022-12-07T04:16:02.603Z,77.43
2022-12-07T04:21:06.411Z,78.45
2022-12-07T04:26:09.943Z,77.71
2022-12-07T04:31:13.777Z,78.24
2022-12-07T04:36:17.279Z,79.13
2022-12-07T04:41:28.106Z,79.97
2022-12-07T04:46:32.481Z,78.64
2022-12-07T04:51:36.171Z,74.59
2022-12-07T04:56:39.787Z,72.53
2022-12-07T05:01:44.152Z,72.11
2022-12-07T05:06:47.485Z,69.79
2022-12-07T05:12:24.409Z,69.37
2022-12-07T05:17:27.846Z,68.94
2022-12-07T05:22:32.615Z,70.22
2022-12-07T05:27:37.056Z,70.11
2022-12-07T05:32:40.309Z,69.62
2022-12-07T05:37:44.254Z,69.52
2022-12-07T05:42:47.529Z,69.95
2022-12-07T05:47:50.629Z,70.31
2022-12-07T05:52:53.710Z,69.38
2022-12-07T05:58:15.679Z,71.48
2022-12-07T06:03:19.739Z,73.16
2022-12-07T06:08:23.789Z,71.02
2022-12-07T06:13:26.968Z,72.52
2022-12-07T06:18:30.094Z,74.39
2022-12-07T06:23:33.292Z,76.01
2022-12-07T06:28:36.796Z,77.77
2022-12-07T06:33:40.428Z,79.79
2022-12-07T06:38:44.030Z,80.92
2022-12-07T06:43:52.722Z,81.07
2022-12-07T06:49:00.037Z,81.26
2022-12-07T06:54:04.272Z,81.23
2022-12-07T06:59:09.088Z,80.16
2022-12-07T07:04:13.318Z,79.58
2022-12-07T07:09:16.517Z,77.43
2022-12-07T07:14:20.992Z,76.34
2022-12-07T07:19:24.340Z,74.66
2022-12-07T07:24:27.441Z,74.34
2022-12-07T07:29:30.787Z,72.96
2022-12-07T07:34:33.981Z,69.77
2022-12-07T07:39:37.893Z,69.39
2022-12-07T07:44:41.311Z,67.25
2022-12-07T07:49:48.240Z,64.29
2022-12-07T07:54:51.743Z,59.83
2022-12-07T07:59:55.828Z,57.74
2022-12-07T08:04:59.089Z,56.12
2022-12-07T08:10:02.696Z,54.47
2022-12-07T08:15:06.652Z,52.84
2022-12-07T08:20:09.891Z,51.63
2022-12-07T08:25:13.622Z,51.37
2022-12-07T08:30:16.942Z,49.65
2022-12-07T08:35:20.674Z,48.34
2022-12-07T08:40:23.816Z,47.02
2022-12-07T08:45:27.844Z,47.69
2022-12-07T08:50:32.909Z,45.11
2022-12-07T08:55:36.844Z,44.51
2022-12-07T09:00:39.945Z,44.96
2022-12-07T09:05:43.148Z,44.10
2022-12-07T09:10:47.512Z,44.52
2022-12-07T09:15:51.247Z,40.55
2022-12-07T09:20:54.967Z,40.55
2022-12-07T09:26:10.610Z,41.27
2022-12-07T09:31:23.304Z,39.33
2022-12-07T09:36:27.945Z,38.89
2022-12-07T09:41:32.722Z,38.37
2022-12-07T09:46:42.004Z,38.90
2022-12-07T09:51:46.038Z,39.91
2022-12-07T09:56:50.163Z,39.94
2022-12-07T10:01:53.831Z,41.32
2022-12-07T10:06:57.615Z,41.24
2022-12-07T10:12:03.457Z,42.96
2022-12-07T10:17:52.366Z,42.63
2022-12-07T10:23:04.874Z,41.37
2022-12-07T10:28:19.511Z,41.72
2022-12-07T10:33:39.133Z,41.58
2022-12-07T10:39:04.646Z,42.72
2022-12-07T10:44:32.646Z,44.14
2022-12-07T10:50:17.632Z,45.94
2022-12-07T10:55:23.781Z,45.88
2022-12-07T11:00:37.760Z,45.79
2022-12-07T11:05:51.582Z,46.88
2022-12-07T11:11:02.589Z,43.52
2022-12-07T11:16:08.307Z,45.70
2022-12-07T11:21:20.546Z,43.74
2022-12-07T11:26:41.675Z,46.42
2022-12-07T11:32:20.874Z,45.98
2022-12-07T11:37:36.491Z,44.99
2022-12-07T11:43:27.538Z,47.05
2022-12-07T11:48:48.238Z,45.81
2022-12-07T11:54:00.507Z,46.92
2022-12-07T11:59:11.627Z,45.45
2022-12-07T12:05:12.185Z,47.73
2022-12-07T12:10:59.421Z,48.40
2022-12-07T12:16:16.506Z,51.21
2022-12-07T12:21:24.775Z,48.62
2022-12-07T12:26:33.467Z,50.95
2022-12-07T12:31:43.474Z,51.13
2022-12-07T12:36:49.018Z,48.89
2022-12-07T12:41:57.203Z,48.08
2022-12-07T12:47:43.003Z,48.53
2022-12-07T12:52:57.172Z,48.53
2022-12-07T12:58:18.849Z,48.94
2022-12-07T13:03:31.374Z,51.01
2022-12-07T13:08:37.457Z,48.82
2022-12-07T13:13:40.327Z,51.07
2022-12-07T13:18:43.809Z,51.68
2022-12-07T13:23:46.992Z,50.03
2022-12-07T13:29:13.577Z,51.55
2022-12-07T13:34:35.322Z,50.77
2022-12-07T13:39:56.150Z,50.70
2022-12-07T13:45:02.739Z,48.63
2022-12-07T13:50:32.409Z,50.73
2022-12-07T13:55:36.186Z,50.21
2022-12-07T14:00:41.846Z,51.94
2022-12-07T14:05:46.231Z,51.94
2022-12-07T14:10:49.342Z,52.82
2022-12-07T14:15:53.606Z,53.40
2022-12-07T14:21:20.866Z,55.18
2022-12-07T14:26:24.457Z,55.99
2022-12-07T14:31:30.800Z,57.25
2022-12-07T14:36:34.434Z,57.01
2022-12-07T14:41:52.718Z,61.59
2022-12-07T16:43:34.759Z,86.59
2022-12-07T16:48:41.787Z,86.01
2022-12-07T16:53:45.233Z,86.42
2022-12-07T16:58:49.693Z,87.54
2022-12-07T17:03:52.752Z,88.27
2022-12-07T17:08:57.447Z,87.75
2022-12-07T17:14:19.485Z,88.54
2022-12-07T17:19:22.598Z,88.81
2022-12-07T17:24:25.838Z,88.99
2022-12-07T17:29:29.395Z,88.96
2022-12-07T17:34:33.139Z,88.75
2022-12-07T17:39:37.128Z,88.92
2022-12-07T17:44:40.816Z,89.64
2022-12-07T17:49:47.064Z,90.11
2022-12-07T17:54:50.314Z,90.61
2022-12-07T17:59:55.985Z,90.89
2022-12-07T18:04:58.964Z,91.86
2022-12-07T18:10:02.020Z,92.33
2022-12-07T18:15:05.725Z,93.23
2022-12-07T18:20:09.332Z,93.33
2022-12-07T18:25:12.507Z,93.59
2022-12-07T18:30:16.612Z,94.52
2022-12-07T18:35:20.234Z,95.08
2022-12-07T18:40:23.190Z,95.31
2022-12-07T18:45:26.252Z,95.36
2022-12-07T18:50:30.539Z,95.25
2022-12-07T18:55:34.309Z,95.83
2022-12-07T19:00:37.769Z,96.18
2022-12-07T19:05:41.669Z,96.86
2022-12-07T19:10:45.056Z,97.04
2022-12-07T19:15:49.392Z,96.44
2022-12-07T19:20:53.445Z,96.52
2022-12-07T19:25:56.780Z,97.10
2022-12-07T19:31:00.253Z,97.53
2022-12-07T19:36:04.295Z,98.21
2022-12-07T19:41:32.937Z,98.80
2022-12-07T19:46:36.330Z,98.96
2022-12-07T19:51:40.614Z,99.36
2022-12-07T19:56:45.465Z,99.99
2022-12-07T20:01:49.293Z,99.75
2022-12-07T20:06:55.777Z,100.00
2022-12-07T20:12:17.097Z,100.00
2022-12-07T20:17:20.642Z,100.00
2022-12-07T20:22:24.173Z,100.00
2022-12-07T20:27:27.195Z,100.00
2022-12-07T20:32:30.577Z,100.00
2022-12-07T20:37:33.618Z,100.00
2022-12-07T20:42:39.611Z,100.00
2022-12-07T20:47:43.024Z,100.00
2022-12-07T20:52:47.338Z,100.00
2022-12-07T20:57:50.844Z,100.00
2022-12-07T21:02:54.036Z,100.00
2022-12-07T21:07:58.577Z,100.00
2022-12-07T21:13:02.095Z,100.00
2022-12-07T21:18:07.559Z,100.00
2022-12-07T21:23:10.847Z,100.00
2022-12-07T21:28:13.837Z,100.00
2022-12-07T21:33:17.060Z,100.00
2022-12-07T21:38:20.576Z,100.00
2022-12-07T21:43:23.901Z,100.00
2022-12-07T21:48:27.537Z,100.00
2022-12-07T21:53:30.489Z,100.00
2022-12-07T21:58:33.510Z,100.00
2022-12-07T22:03:37.187Z,100.00
2022-12-07T22:08:41.626Z,100.00
2022-12-07T22:14:09.954Z,100.00
2022-12-07T22:19:14.298Z,100.00
2022-12-07T22:24:17.975Z,100.00
2022-12-07T22:29:22.030Z,100.00
2022-12-07T22:34:25.042Z,100.00
2022-12-07T22:39:28.662Z,100.00
2022-12-07T22:44:31.916Z,100.00
2022-12-07T22:49:35.430Z,100.00
2022-12-07T22:54:38.415Z,100.00
2022-12-07T22:59:41.687Z,100.00
2022-12-07T23:04:45.081Z,100.00
2022-12-07T23:09:48.499Z,100.00
2022-12-07T23:14:54.609Z,100.00
2022-12-07T23:19:58.341Z,100.00
2022-12-07T23:25:02.232Z,100.00
2022-12-07T23:30:06.713Z,100.00
2022-12-07T23:35:10.018Z,100.00
2022-12-07T23:40:13.277Z,100.00
2022-12-07T23:45:16.663Z,100.00
2022-12-07T23:50:19.735Z,100.00
2022-12-07T23:55:22.801Z,100.00
